createdAt,value
2024-01-16T00:00:05.607Z,661.33
2024-01-16T00:00:16.617Z,661.61
2024-01-16T00:00:28.585Z,661.17
2024-01-16T00:00:39.595Z,660.97
2024-01-16T00:00:51.617Z,660.84
2024-01-16T00:01:02.625Z,660.84
2024-01-16T00:01:13.654Z,660.67
2024-01-16T00:01:25.675Z,660.73
2024-01-16T00:01:37.633Z,660.60
2024-01-16T00:03:06.594Z,660.52
2024-01-16T00:03:17.577Z,660.27
2024-01-16T00:03:28.616Z,660.97
2024-01-16T00:03:40.609Z,661.80
2024-01-16T00:03:52.604Z,660.26
2024-01-16T00:05:15.679Z,660.49
2024-01-16T00:05:26.644Z,660.34
2024-01-16T00:05:38.672Z,660.87
2024-01-16T00:05:50.616Z,660.85
2024-01-16T00:06:02.592Z,661.10
2024-01-16T00:06:13.644Z,661.19
2024-01-16T00:06:25.640Z,660.58
2024-01-16T00:06:37.671Z,660.34
2024-01-16T00:06:49.659Z,660.31
2024-01-16T00:07:01.675Z,660.42
2024-01-16T00:07:13.669Z,660.39
2024-01-16T00:07:25.587Z,660.25
2024-01-16T00:07:37.578Z,660.16
2024-01-16T00:07:48.589Z,659.91
2024-01-16T00:07:59.583Z,659.88
2024-01-16T00:08:10.625Z,659.74
2024-01-16T00:08:22.642Z,659.61
2024-01-16T00:08:33.571Z,659.68
2024-01-16T00:08:44.776Z,660.58
2024-01-16T00:08:56.620Z,661.07
2024-01-16T00:09:08.588Z,660.21
2024-01-16T00:09:19.617Z,659.82
2024-01-16T00:09:31.589Z,660.00
2024-01-16T00:09:42.584Z,661.49
2024-01-16T00:09:54.595Z,660.39
2024-01-16T00:10:05.611Z,660.05
2024-01-16T00:10:17.598Z,659.90
2024-01-16T00:10:28.598Z,659.48
2024-01-16T00:10:40.608Z,659.70
2024-01-16T00:10:51.612Z,660.28
2024-01-16T00:11:03.592Z,660.29
2024-01-16T00:11:14.604Z,660.11
2024-01-16T00:11:26.665Z,660.01
2024-01-16T00:11:37.639Z,660.60
2024-01-16T00:11:49.651Z,660.46
2024-01-16T00:12:01.653Z,659.39
2024-01-16T00:12:12.612Z,659.91
2024-01-16T00:12:24.564Z,661.72
2024-01-16T00:12:35.604Z,660.79
2024-01-16T00:12:47.571Z,661.19
2024-01-16T00:12:58.571Z,660.12
2024-01-16T00:13:09.574Z,659.61
2024-01-16T00:13:20.594Z,660.01
2024-01-16T00:13:31.588Z,659.09
2024-01-16T00:13:42.599Z,659.18
2024-01-16T00:13:53.604Z,658.85
2024-01-16T00:14:05.639Z,659.92
2024-01-16T00:14:16.564Z,662.29
2024-01-16T00:14:27.602Z,659.67
2024-01-16T00:14:38.680Z,659.74
2024-01-16T00:14:50.646Z,659.63
2024-01-16T00:15:02.624Z,658.76
2024-01-16T00:15:14.592Z,658.18
2024-01-16T00:17:41.784Z,660.30
2024-01-16T00:17:52.681Z,658.95
2024-01-16T00:18:03.774Z,658.99
2024-01-16T00:18:15.848Z,658.86
2024-01-16T00:19:37.674Z,658.33
2024-01-16T00:19:49.581Z,658.25
2024-01-16T00:20:00.567Z,658.13
2024-01-16T00:20:11.608Z,658.28
2024-01-16T00:20:22.609Z,658.54
2024-01-16T00:20:33.669Z,658.04
2024-01-16T00:20:45.606Z,657.81
2024-01-16T00:20:57.592Z,657.97
2024-01-16T00:21:08.587Z,657.88
2024-01-16T00:21:19.597Z,658.83
2024-01-16T00:21:30.608Z,658.29
2024-01-16T00:21:41.591Z,658.17
2024-01-16T00:21:53.573Z,658.07
2024-01-16T00:22:04.577Z,658.28
2024-01-16T00:22:15.596Z,657.80
2024-01-16T00:22:26.600Z,657.73
2024-01-16T00:22:37.589Z,657.50
2024-01-16T00:22:49.624Z,657.61
2024-01-16T00:23:01.668Z,657.69
2024-01-16T00:23:12.623Z,657.28
2024-01-16T00:23:24.647Z,658.06
2024-01-16T00:23:35.641Z,658.39
2024-01-16T00:23:46.680Z,658.09
2024-01-16T00:23:58.568Z,658.29
2024-01-16T00:24:09.633Z,658.46
2024-01-16T00:24:21.573Z,658.13
2024-01-16T00:24:32.567Z,658.07
2024-01-16T00:24:43.592Z,657.77
2024-01-16T00:24:55.594Z,657.70
2024-01-16T00:25:06.581Z,657.64
2024-01-16T00:25:17.607Z,658.00
2024-01-16T00:25:29.575Z,658.00
2024-01-16T00:25:40.576Z,657.85
2024-01-16T00:25:51.580Z,657.64
2024-01-16T00:26:02.637Z,657.56
2024-01-16T00:26:14.650Z,657.54
2024-01-16T00:26:26.653Z,657.01
2024-01-16T00:26:37.668Z,657.38
2024-01-16T00:28:35.571Z,657.41
2024-01-16T00:28:46.591Z,657.40
2024-01-16T00:28:57.604Z,657.60
2024-01-16T00:29:08.638Z,657.55
2024-01-16T00:29:19.598Z,657.05
2024-01-16T00:29:31.687Z,657.77
2024-01-16T00:29:43.708Z,658.40
2024-01-16T00:29:55.605Z,658.61
2024-01-16T00:30:07.597Z,657.56
2024-01-16T00:30:19.586Z,657.39
2024-01-16T00:30:30.604Z,657.93
2024-01-16T00:30:42.589Z,657.48
2024-01-16T00:30:53.602Z,657.40
2024-01-16T00:31:04.602Z,657.03
2024-01-16T00:31:16.643Z,657.67
2024-01-16T00:31:28.594Z,657.53
2024-01-16T00:31:40.608Z,656.98
2024-01-16T00:31:52.580Z,657.23
2024-01-16T00:34:58.580Z,657.51
2024-01-16T00:36:16.583Z,657.32
2024-01-16T00:36:27.584Z,657.37
2024-01-16T00:36:38.582Z,658.32
2024-01-16T00:37:09.198Z,658.95
2024-01-16T00:37:10.550Z,657.53
2024-01-16T00:39:09.560Z,657.02
2024-01-16T00:39:20.642Z,656.82
2024-01-16T00:39:44.242Z,656.62
2024-01-16T00:39:45.604Z,657.14
2024-01-16T00:41:31.661Z,656.93
2024-01-16T00:41:42.723Z,657.22
2024-01-16T00:43:16.622Z,656.77
2024-01-16T00:43:28.605Z,656.68
2024-01-16T00:46:47.628Z,655.87
2024-01-16T00:46:59.633Z,655.99
2024-01-16T00:47:11.630Z,656.88
2024-01-16T00:47:22.590Z,657.30
2024-01-16T00:47:33.682Z,656.65
2024-01-16T00:47:44.742Z,656.34
2024-01-16T00:48:10.166Z,656.66
2024-01-16T00:48:12.047Z,657.01
2024-01-16T00:50:07.669Z,655.54
2024-01-16T00:50:19.652Z,655.46
2024-01-16T00:50:31.680Z,655.67
2024-01-16T00:52:47.582Z,655.25
2024-01-16T00:52:58.572Z,655.35
2024-01-16T00:53:09.649Z,655.47
2024-01-16T00:53:20.633Z,655.53
2024-01-16T00:53:32.649Z,655.78
2024-01-16T00:53:44.744Z,655.50
2024-01-16T00:53:56.610Z,655.99
2024-01-16T00:54:08.604Z,655.21
2024-01-16T00:54:19.616Z,656.16
2024-01-16T00:54:31.612Z,655.67
2024-01-16T00:54:43.615Z,656.06
2024-01-16T00:54:54.607Z,656.08
2024-01-16T00:55:05.594Z,656.43
2024-01-16T00:55:16.602Z,656.19
2024-01-16T01:01:34.659Z,655.56
2024-01-16T01:01:46.632Z,656.04
2024-01-16T01:01:58.605Z,655.39
2024-01-16T01:02:09.647Z,655.72
2024-01-16T01:02:21.651Z,655.26
2024-01-16T01:02:33.687Z,655.13
2024-01-16T01:02:45.709Z,655.06
2024-01-16T01:02:57.641Z,654.94
2024-01-16T01:03:09.634Z,654.94
2024-01-16T01:03:21.682Z,655.00
2024-01-16T01:03:32.630Z,654.96
2024-01-16T01:03:44.690Z,654.81
2024-01-16T01:03:55.723Z,654.88
2024-01-16T01:04:07.636Z,655.61
2024-01-16T01:04:18.564Z,655.49
2024-01-16T01:04:29.576Z,655.20
2024-01-16T01:04:40.590Z,655.12
2024-01-16T01:04:51.620Z,654.98
2024-01-16T01:05:03.649Z,655.53
2024-01-16T01:05:15.685Z,655.35
2024-01-16T01:05:27.632Z,655.02
2024-01-16T01:05:38.703Z,655.21
2024-01-16T01:05:49.697Z,654.66
2024-01-16T01:06:00.695Z,655.05
2024-01-16T01:06:11.693Z,654.74
2024-01-16T01:06:22.711Z,654.59
2024-01-16T01:06:34.598Z,654.66
2024-01-16T01:06:45.619Z,654.57
2024-01-16T01:06:57.597Z,654.83
2024-01-16T01:07:08.594Z,655.30
2024-01-16T01:07:19.586Z,654.87
2024-01-16T01:07:30.589Z,654.46
2024-01-16T01:07:41.616Z,654.35
2024-01-16T01:07:53.631Z,654.17
2024-01-16T01:08:05.632Z,654.36
2024-01-16T01:08:16.576Z,654.32
2024-01-16T01:08:27.646Z,654.27
2024-01-16T01:08:38.589Z,654.12
2024-01-16T01:08:50.608Z,654.27
2024-01-16T01:09:01.614Z,654.42
2024-01-16T01:09:12.597Z,654.27
2024-01-16T01:10:48.635Z,653.23
2024-01-16T01:11:00.639Z,653.61
2024-01-16T01:12:19.604Z,653.42
2024-01-16T01:12:31.588Z,653.51
2024-01-16T01:12:42.578Z,654.00
2024-01-16T01:12:53.581Z,654.49
2024-01-16T01:13:04.589Z,654.44
2024-01-16T01:13:15.589Z,653.29
2024-01-16T01:13:26.601Z,653.59
2024-01-16T01:13:37.602Z,654.29
2024-01-16T01:13:48.618Z,654.69
2024-01-16T01:14:00.645Z,653.92
2024-01-16T01:14:11.629Z,653.27
2024-01-16T01:14:22.642Z,653.03
2024-01-16T01:14:33.667Z,654.07
2024-01-16T01:14:44.745Z,654.22
2024-01-16T01:15:04.777Z,653.76
2024-01-16T01:15:07.654Z,653.76
2024-01-16T01:15:26.353Z,652.40
2024-01-16T01:15:29.607Z,653.48
2024-01-16T01:15:40.625Z,653.11
2024-01-16T01:15:52.591Z,652.94
2024-01-16T01:16:15.616Z,653.26
2024-01-16T01:16:26.606Z,653.30
2024-01-16T01:16:38.584Z,653.31
2024-01-16T01:16:49.675Z,653.08
2024-01-16T01:19:48.572Z,652.46
2024-01-16T01:19:59.566Z,652.39
2024-01-16T01:20:18.360Z,652.21
2024-01-16T01:20:22.641Z,652.34
2024-01-16T01:21:52.592Z,652.64
2024-01-16T01:22:03.587Z,652.39
2024-01-16T01:22:14.588Z,652.18
2024-01-16T01:22:25.717Z,652.60
2024-01-16T01:22:36.596Z,652.59
2024-01-16T01:22:47.594Z,652.34
2024-01-16T01:22:58.613Z,652.06
2024-01-16T01:23:09.665Z,652.68
2024-01-16T01:23:21.592Z,652.66
2024-01-16T01:23:32.640Z,651.98
2024-01-16T01:23:44.674Z,652.22
2024-01-16T01:23:56.592Z,652.00
2024-01-16T01:24:08.581Z,652.08
2024-01-16T01:24:19.583Z,651.29
2024-01-16T01:24:30.617Z,652.29
2024-01-16T01:24:42.582Z,651.67
2024-01-16T01:24:53.632Z,652.08
2024-01-16T01:25:05.632Z,652.00
2024-01-16T01:25:17.620Z,651.91
2024-01-16T01:25:28.591Z,652.09
2024-01-16T01:25:39.594Z,652.44
2024-01-16T01:25:51.612Z,651.82
2024-01-16T01:26:02.672Z,651.49
2024-01-16T01:26:14.581Z,651.73
2024-01-16T01:26:25.654Z,653.11
2024-01-16T01:26:36.617Z,651.95
2024-01-16T01:26:47.680Z,651.87
2024-01-16T01:26:58.644Z,651.49
2024-01-16T01:27:10.597Z,651.64
2024-01-16T01:27:21.612Z,651.07
2024-01-16T01:27:33.577Z,651.25
2024-01-16T01:27:44.579Z,652.25
2024-01-16T01:27:56.586Z,651.61
2024-01-16T01:28:07.592Z,651.68
2024-01-16T01:28:19.580Z,651.84
2024-01-16T01:28:30.609Z,651.77
2024-01-16T01:28:42.694Z,651.76
2024-01-16T01:28:53.551Z,652.29
2024-01-16T01:29:04.651Z,652.67
2024-01-16T01:29:15.587Z,651.79
2024-01-16T01:29:26.631Z,651.26
2024-01-16T01:30:54.690Z,654.05
2024-01-16T01:32:12.642Z,651.87
2024-01-16T01:32:23.679Z,651.62
2024-01-16T01:32:42.451Z,651.66
2024-01-16T01:32:45.767Z,652.22
2024-01-16T01:32:57.756Z,652.04
2024-01-16T01:33:09.645Z,652.04
2024-01-16T01:33:20.899Z,651.27
2024-01-16T01:33:32.686Z,651.63
2024-01-16T01:33:43.738Z,651.29
2024-01-16T01:33:55.687Z,651.57
2024-01-16T01:34:06.668Z,651.56
2024-01-16T01:34:17.839Z,651.53
2024-01-16T01:34:28.641Z,650.55
2024-01-16T01:34:40.595Z,650.82
2024-01-16T01:34:52.592Z,650.99
2024-01-16T01:35:04.625Z,650.63
2024-01-16T01:35:15.645Z,650.60
2024-01-16T01:35:26.664Z,651.29
2024-01-16T01:35:37.637Z,650.67
2024-01-16T01:35:49.670Z,650.57
2024-01-16T01:36:00.568Z,650.95
2024-01-16T01:36:11.582Z,651.65
2024-01-16T01:36:22.595Z,651.59
2024-01-16T01:36:33.591Z,651.16
2024-01-16T01:36:44.857Z,651.23
2024-01-16T01:36:56.594Z,650.90
2024-01-16T01:37:07.618Z,651.04
2024-01-16T01:37:19.587Z,651.61
2024-01-16T01:37:30.612Z,651.18
2024-01-16T01:37:41.598Z,651.87
2024-01-16T01:37:52.603Z,651.82
2024-01-16T01:38:04.695Z,652.16
2024-01-16T01:38:16.579Z,651.37
2024-01-16T01:38:27.635Z,650.89
2024-01-16T01:38:39.687Z,651.46
2024-01-16T01:38:50.704Z,651.57
2024-01-16T01:39:02.600Z,651.14
2024-01-16T01:39:13.608Z,651.15
2024-01-16T01:39:25.639Z,651.55
2024-01-16T01:39:36.568Z,651.68
2024-01-16T01:39:47.570Z,650.66
2024-01-16T01:39:58.581Z,651.41
2024-01-16T01:40:10.560Z,651.43
2024-01-16T01:40:21.580Z,651.44
2024-01-16T01:40:32.592Z,651.29
2024-01-16T01:40:43.595Z,651.26
2024-01-16T01:40:55.659Z,651.20
2024-01-16T01:41:08.602Z,650.98
2024-01-16T01:41:18.579Z,651.44
2024-01-16T01:43:33.602Z,650.72
2024-01-16T01:46:48.607Z,650.28
2024-01-16T01:47:00.573Z,650.47
2024-01-16T01:47:11.590Z,650.38
2024-01-16T01:47:23.651Z,650.56
2024-01-16T01:47:34.591Z,650.29
2024-01-16T01:47:46.683Z,650.04
2024-01-16T01:47:57.795Z,649.68
2024-01-16T01:48:09.728Z,650.11
2024-01-16T01:48:20.688Z,650.46
2024-01-16T01:48:31.592Z,650.03
2024-01-16T01:48:43.814Z,651.29
2024-01-16T01:48:55.657Z,650.83
2024-01-16T01:49:06.606Z,651.07
2024-01-16T01:49:17.570Z,650.27
2024-01-16T01:49:28.636Z,650.54
2024-01-16T01:49:39.606Z,650.95
2024-01-16T01:49:51.610Z,650.53
2024-01-16T01:50:03.575Z,650.89
2024-01-16T01:50:14.666Z,650.79
2024-01-16T01:50:26.597Z,650.66
2024-01-16T01:50:37.623Z,650.05
2024-01-16T01:50:49.705Z,651.23
2024-01-16T01:51:01.584Z,650.57
2024-01-16T01:51:12.586Z,650.95
2024-01-16T01:51:24.608Z,651.64
2024-01-16T01:51:36.579Z,650.23
2024-01-16T01:52:55.704Z,650.43
2024-01-16T01:53:07.586Z,650.29
2024-01-16T01:53:18.642Z,650.24
2024-01-16T01:53:30.609Z,650.37
2024-01-16T01:53:42.680Z,650.26
2024-01-16T01:53:53.627Z,650.25
2024-01-16T01:54:04.567Z,649.97
2024-01-16T01:54:15.623Z,649.86
2024-01-16T01:54:27.625Z,649.53
2024-01-16T01:54:39.597Z,649.85
2024-01-16T01:54:51.572Z,650.18
2024-01-16T01:56:54.591Z,649.34
2024-01-16T01:58:21.606Z,649.42
2024-01-16T02:01:48.628Z,648.80
2024-01-16T02:02:00.628Z,649.02
2024-01-16T02:02:12.609Z,649.07
2024-01-16T02:02:24.645Z,649.09
2024-01-16T02:02:35.584Z,649.15
2024-01-16T02:03:54.586Z,648.67
2024-01-16T02:04:05.581Z,648.52
2024-01-16T02:04:16.605Z,649.82
2024-01-16T02:04:28.566Z,649.24
2024-01-16T02:04:39.577Z,649.33
2024-01-16T02:04:50.615Z,649.40
2024-01-16T02:05:01.621Z,649.19
2024-01-16T02:05:12.586Z,649.12
2024-01-16T02:05:23.672Z,648.82
2024-01-16T02:05:34.743Z,648.70
2024-01-16T02:05:45.684Z,648.90
2024-01-16T02:05:57.749Z,649.06
2024-01-16T02:06:08.700Z,648.91
2024-01-16T02:06:19.698Z,648.74
2024-01-16T02:06:30.614Z,648.61
2024-01-16T02:06:41.569Z,649.06
2024-01-16T02:06:52.553Z,650.39
2024-01-16T02:07:03.570Z,649.41
2024-01-16T02:07:15.575Z,649.17
2024-01-16T02:07:26.568Z,649.18
2024-01-16T02:07:37.577Z,649.45
2024-01-16T02:07:48.590Z,649.23
2024-01-16T02:07:59.626Z,648.98
2024-01-16T02:08:11.657Z,649.49
2024-01-16T02:08:22.599Z,648.94
2024-01-16T02:08:34.615Z,649.03
2024-01-16T02:08:46.672Z,649.00
2024-01-16T02:08:58.590Z,648.78
2024-01-16T02:09:10.568Z,649.50
2024-01-16T02:09:21.585Z,649.38
2024-01-16T02:09:32.588Z,649.26
2024-01-16T02:09:43.578Z,649.10
2024-01-16T02:09:54.579Z,649.90
2024-01-16T02:10:05.583Z,649.59
2024-01-16T02:10:16.591Z,648.86
2024-01-16T02:10:27.588Z,648.64
2024-01-16T02:10:38.593Z,648.67
2024-01-16T02:10:50.568Z,649.10
2024-01-16T02:11:01.573Z,648.85
2024-01-16T02:11:12.598Z,648.94
2024-01-16T02:11:24.633Z,648.70
2024-01-16T02:11:35.611Z,648.79
2024-01-16T02:11:46.724Z,648.31
2024-01-16T02:11:58.534Z,648.65
2024-01-16T02:12:09.564Z,648.61
2024-01-16T02:12:21.825Z,649.16
2024-01-16T02:12:31.540Z,648.19
2024-01-16T02:12:42.560Z,647.83
2024-01-16T02:12:53.557Z,648.06
2024-01-16T02:13:04.547Z,648.42
2024-01-16T02:13:15.579Z,648.80
2024-01-16T02:13:26.577Z,648.33
2024-01-16T02:13:37.560Z,648.31
2024-01-16T02:13:48.550Z,648.44
2024-01-16T02:13:59.544Z,648.24
2024-01-16T02:14:10.601Z,648.53
2024-01-16T02:14:21.637Z,649.75
2024-01-16T02:14:33.612Z,649.69
2024-01-16T02:14:45.637Z,649.37
2024-01-16T02:14:57.606Z,648.67
2024-01-16T02:15:09.570Z,649.81
2024-01-16T02:15:20.562Z,649.80
2024-01-16T02:15:31.583Z,648.57
2024-01-16T02:15:42.584Z,648.52
2024-01-16T02:20:27.612Z,648.12
2024-01-16T02:20:39.589Z,647.61
2024-01-16T02:22:00.552Z,646.57
2024-01-16T02:22:11.570Z,646.62
2024-01-16T02:22:22.629Z,646.95
2024-01-16T02:22:33.534Z,647.04
2024-01-16T02:22:44.542Z,646.89
2024-01-16T02:22:55.590Z,647.82
2024-01-16T02:23:06.601Z,647.40
2024-01-16T02:23:18.599Z,647.15
2024-01-16T02:26:57.624Z,646.85
2024-01-16T02:27:09.625Z,646.85
2024-01-16T02:27:21.622Z,646.70
2024-01-16T02:27:33.593Z,646.55
2024-01-16T02:27:44.583Z,646.51
2024-01-16T02:27:56.560Z,646.40
2024-01-16T02:28:07.550Z,646.63
2024-01-16T02:28:18.536Z,646.60
2024-01-16T02:28:29.524Z,646.72
2024-01-16T02:28:40.538Z,646.64
2024-01-16T02:28:51.544Z,646.52
2024-01-16T02:29:02.562Z,646.44
2024-01-16T02:29:13.625Z,646.77
2024-01-16T02:29:25.662Z,647.00
2024-01-16T02:29:37.611Z,647.10
2024-01-16T02:29:49.637Z,647.02
2024-01-16T02:30:01.600Z,646.95
2024-01-16T02:30:13.614Z,647.32
2024-01-16T02:30:25.634Z,646.88
2024-01-16T02:30:36.663Z,646.82
2024-01-16T02:30:47.729Z,646.82
2024-01-16T02:30:58.597Z,646.89
2024-01-16T02:31:10.568Z,646.96
2024-01-16T02:31:34.369Z,646.96
2024-01-16T02:31:35.548Z,646.87
2024-01-16T02:31:46.599Z,646.72
2024-01-16T02:31:57.580Z,646.97
2024-01-16T02:34:49.586Z,646.52
2024-01-16T02:36:24.629Z,646.67
2024-01-16T02:36:36.583Z,646.31
2024-01-16T02:36:47.582Z,645.91
2024-01-16T02:36:58.591Z,646.30
2024-01-16T02:37:10.557Z,646.49
2024-01-16T02:37:21.543Z,647.06
2024-01-16T02:37:32.579Z,646.67
2024-01-16T02:37:43.573Z,646.34
2024-01-16T02:37:54.589Z,646.46
2024-01-16T02:38:05.594Z,646.46
2024-01-16T02:38:17.595Z,646.58
2024-01-16T02:38:29.603Z,646.53
2024-01-16T02:38:44.485Z,646.60
2024-01-16T02:38:52.600Z,646.18
2024-01-16T02:39:03.634Z,646.19
2024-01-16T02:39:15.586Z,646.20
2024-01-16T02:39:27.567Z,646.65
2024-01-16T02:39:38.572Z,646.60
2024-01-16T02:39:49.564Z,646.06
2024-01-16T02:40:00.596Z,645.92
2024-01-16T02:40:11.589Z,646.15
2024-01-16T02:40:23.588Z,646.06
2024-01-16T02:40:35.596Z,646.50
2024-01-16T02:40:47.589Z,646.46
2024-01-16T02:40:59.560Z,646.10
2024-01-16T02:41:11.595Z,646.31
2024-01-16T02:41:23.580Z,646.63
2024-01-16T02:41:34.614Z,646.48
2024-01-16T02:41:46.705Z,646.29
2024-01-16T02:43:53.533Z,646.29
2024-01-16T02:48:57.641Z,645.02
2024-01-16T02:49:08.654Z,645.22
2024-01-16T02:49:19.623Z,645.21
2024-01-16T02:49:31.731Z,645.52
2024-01-16T02:49:43.733Z,645.15
2024-01-16T02:49:55.565Z,645.12
2024-01-16T02:50:06.615Z,646.31
2024-01-16T02:50:17.632Z,646.04
2024-01-16T02:50:29.685Z,645.70
2024-01-16T02:50:41.678Z,645.59
2024-01-16T02:50:53.676Z,645.25
2024-01-16T02:51:04.597Z,645.35
2024-01-16T02:51:16.606Z,645.57
2024-01-16T02:51:28.579Z,645.27
2024-01-16T02:51:39.594Z,645.12
2024-01-16T02:51:50.633Z,645.27
2024-01-16T02:52:02.583Z,645.24
2024-01-16T02:52:13.586Z,645.58
2024-01-16T02:52:24.599Z,645.23
2024-01-16T02:52:35.590Z,645.41
2024-01-16T02:52:47.573Z,645.27
2024-01-16T02:52:58.641Z,645.36
2024-01-16T02:53:09.569Z,644.72
2024-01-16T02:53:20.643Z,644.50
2024-01-16T02:53:31.608Z,644.34
2024-01-16T02:53:43.847Z,644.94
2024-01-16T02:53:55.567Z,644.44
2024-01-16T02:54:06.610Z,644.28
2024-01-16T02:54:18.566Z,644.12
2024-01-16T02:54:29.565Z,644.50
2024-01-16T02:54:40.571Z,645.08
2024-01-16T02:54:51.557Z,644.85
2024-01-16T02:55:02.562Z,645.10
2024-01-16T02:55:13.617Z,645.38
2024-01-16T02:55:25.582Z,645.44
2024-01-16T02:55:36.597Z,644.68
2024-01-16T02:55:47.600Z,644.50
2024-01-16T02:55:58.619Z,644.20
2024-01-16T02:56:10.733Z,644.89
2024-01-16T02:56:22.709Z,644.89
2024-01-16T02:56:34.678Z,645.32
2024-01-16T02:56:46.606Z,644.83
2024-01-16T02:56:57.637Z,644.81
2024-01-16T02:57:09.604Z,644.37
2024-01-16T02:57:20.588Z,644.53
2024-01-16T02:57:31.657Z,643.96
2024-01-16T02:57:43.628Z,644.69
2024-01-16T02:57:55.586Z,645.02
2024-01-16T02:58:06.579Z,644.81
2024-01-16T02:58:18.586Z,644.09
2024-01-16T02:58:29.593Z,644.01
2024-01-16T02:58:40.652Z,643.45
2024-01-16T02:58:52.595Z,643.72
2024-01-16T02:59:03.656Z,643.45
2024-01-16T03:01:27.584Z,643.90
2024-01-16T03:02:45.727Z,643.26
2024-01-16T03:02:56.699Z,643.60
2024-01-16T03:03:08.614Z,643.91
2024-01-16T03:03:20.626Z,643.62
2024-01-16T03:05:16.639Z,643.56
2024-01-16T03:05:27.598Z,643.51
2024-01-16T03:05:38.695Z,643.39
2024-01-16T03:05:50.653Z,643.33
2024-01-16T03:06:01.809Z,643.45
2024-01-16T03:06:12.687Z,643.01
2024-01-16T03:06:24.868Z,643.25
2024-01-16T03:08:10.668Z,643.27
2024-01-16T03:10:02.604Z,642.32
2024-01-16T03:10:13.610Z,642.57
2024-01-16T03:10:24.616Z,642.47
2024-01-16T03:10:35.615Z,642.79
2024-01-16T03:10:47.580Z,643.13
2024-01-16T03:10:58.577Z,642.34
2024-01-16T03:11:09.667Z,642.29
2024-01-16T03:11:21.636Z,642.31
2024-01-16T03:11:33.843Z,641.96
2024-01-16T03:11:43.697Z,642.46
2024-01-16T03:13:18.617Z,641.69
2024-01-16T03:13:29.614Z,642.09
2024-01-16T03:13:40.605Z,641.57
2024-01-16T03:13:51.616Z,642.32
2024-01-16T03:14:03.580Z,642.80
2024-01-16T03:14:14.654Z,642.45
2024-01-16T03:14:25.627Z,642.25
2024-01-16T03:14:36.706Z,642.15
2024-01-16T03:14:48.630Z,641.98
2024-01-16T03:15:00.592Z,641.89
2024-01-16T03:15:11.614Z,642.08
2024-01-16T03:15:22.606Z,642.29
2024-01-16T03:15:34.600Z,642.24
2024-01-16T03:15:45.597Z,642.22
2024-01-16T03:15:56.618Z,642.38
2024-01-16T03:16:08.588Z,642.29
2024-01-16T03:16:19.582Z,642.01
2024-01-16T03:16:30.612Z,641.94
2024-01-16T03:16:42.587Z,641.89
2024-01-16T03:16:54.592Z,641.89
2024-01-16T03:21:11.554Z,641.22
2024-01-16T03:21:22.568Z,641.19
2024-01-16T03:21:33.568Z,641.29
2024-01-16T03:21:44.554Z,641.26
2024-01-16T03:21:55.642Z,641.19
2024-01-16T03:22:07.610Z,641.12
2024-01-16T03:22:19.606Z,641.15
2024-01-16T03:22:31.589Z,640.95
2024-01-16T03:22:42.605Z,640.93
2024-01-16T03:22:53.604Z,640.94
2024-01-16T03:23:05.680Z,640.84
2024-01-16T03:23:17.599Z,640.91
2024-01-16T03:23:28.689Z,641.11
2024-01-16T03:23:40.675Z,640.92
2024-01-16T03:23:51.777Z,640.59
2024-01-16T03:24:02.564Z,640.49
2024-01-16T03:24:13.582Z,640.78
2024-01-16T03:24:24.596Z,641.14
2024-01-16T03:24:35.605Z,640.99
2024-01-16T03:24:46.619Z,640.78
2024-01-16T03:24:58.614Z,640.82
2024-01-16T03:25:10.613Z,641.54
2024-01-16T03:25:21.609Z,641.21
2024-01-16T03:25:33.604Z,641.01
2024-01-16T03:25:45.577Z,641.10
2024-01-16T03:25:56.619Z,640.90
2024-01-16T03:26:08.660Z,641.23
2024-01-16T03:26:19.610Z,641.08
2024-01-16T03:26:30.718Z,641.13
2024-01-16T03:26:42.619Z,641.18
2024-01-16T03:26:54.656Z,641.84
2024-01-16T03:28:23.644Z,641.32
2024-01-16T03:28:35.601Z,641.43
2024-01-16T03:28:46.736Z,641.21
2024-01-16T03:28:58.615Z,641.07
2024-01-16T03:29:09.626Z,640.72
2024-01-16T03:29:21.687Z,640.93
2024-01-16T03:29:33.640Z,641.21
2024-01-16T03:29:45.666Z,640.71
2024-01-16T03:29:57.677Z,640.67
2024-01-16T03:30:09.949Z,641.23
2024-01-16T03:30:20.817Z,641.08
2024-01-16T03:30:32.658Z,641.19
2024-01-16T03:30:43.652Z,640.98
2024-01-16T03:30:55.904Z,640.72
2024-01-16T03:31:07.702Z,640.89
2024-01-16T03:31:19.634Z,640.87
2024-01-16T03:31:31.648Z,640.91
2024-01-16T03:31:43.637Z,640.63
2024-01-16T03:31:55.608Z,641.14
2024-01-16T03:34:35.642Z,640.51
2024-01-16T03:34:58.144Z,640.42
2024-01-16T03:34:59.595Z,640.38
2024-01-16T03:35:11.612Z,640.28
2024-01-16T03:36:58.578Z,640.43
2024-01-16T03:38:55.718Z,640.06
2024-01-16T03:39:07.586Z,640.41
2024-01-16T03:39:18.598Z,640.49
2024-01-16T03:39:29.604Z,640.32
2024-01-16T03:39:40.597Z,640.27
2024-01-16T03:39:52.586Z,640.60
2024-01-16T03:40:03.594Z,640.48
2024-01-16T03:40:14.644Z,640.23
2024-01-16T03:40:26.580Z,640.11
2024-01-16T03:40:37.589Z,640.25
2024-01-16T03:40:48.605Z,640.10
2024-01-16T03:41:00.584Z,639.97
2024-01-16T03:41:11.588Z,639.95
2024-01-16T03:41:22.695Z,639.94
2024-01-16T03:41:34.642Z,639.79
2024-01-16T03:43:03.641Z,639.60
2024-01-16T03:43:15.604Z,639.66
2024-01-16T03:43:27.583Z,639.89
2024-01-16T03:43:38.587Z,639.89
2024-01-16T03:43:49.584Z,639.72
2024-01-16T03:44:00.595Z,639.70
2024-01-16T03:44:12.606Z,639.82
2024-01-16T03:44:24.632Z,639.64
2024-01-16T03:44:36.638Z,639.58
2024-01-16T03:44:48.646Z,639.80
2024-01-16T03:44:59.596Z,640.01
2024-01-16T03:45:12.959Z,639.83
2024-01-16T03:45:22.572Z,639.93
2024-01-16T03:45:33.580Z,639.90
2024-01-16T03:45:44.579Z,639.91
2024-01-16T03:45:55.579Z,639.90
2024-01-16T03:46:06.601Z,640.00
2024-01-16T03:46:17.600Z,639.89
2024-01-16T03:46:29.614Z,639.94
2024-01-16T03:46:40.617Z,640.46
2024-01-16T03:46:52.584Z,640.52
2024-01-16T03:48:50.696Z,640.42
2024-01-16T03:49:01.801Z,640.68
2024-01-16T03:49:13.639Z,640.73
2024-01-16T03:49:25.677Z,640.39
2024-01-16T03:49:36.738Z,640.26
2024-01-16T03:49:48.588Z,640.32
2024-01-16T03:49:59.588Z,640.40
2024-01-16T03:50:10.602Z,640.36
2024-01-16T03:50:21.628Z,640.35
2024-01-16T03:50:33.702Z,640.38
2024-01-16T03:50:45.643Z,640.44
2024-01-16T03:50:57.645Z,640.29
2024-01-16T03:51:09.629Z,640.32
2024-01-16T03:51:21.587Z,640.19
2024-01-16T03:51:32.613Z,640.22
2024-01-16T03:51:44.610Z,640.12
2024-01-16T03:53:10.622Z,640.31
2024-01-16T03:53:22.613Z,640.22
2024-01-16T03:53:34.633Z,640.20
2024-01-16T03:53:46.617Z,640.31
2024-01-16T03:53:57.609Z,640.36
2024-01-16T03:54:08.596Z,640.41
2024-01-16T03:54:19.609Z,640.35
2024-01-16T03:54:30.614Z,640.15
2024-01-16T03:54:41.605Z,640.05
2024-01-16T03:54:53.615Z,640.15
2024-01-16T03:55:04.611Z,640.15
2024-01-16T03:55:16.583Z,640.00
2024-01-16T03:55:27.592Z,640.17
2024-01-16T03:55:38.605Z,640.15
2024-01-16T03:55:50.591Z,640.05
2024-01-16T03:57:09.656Z,639.92
2024-01-16T03:57:21.603Z,639.51
2024-01-16T03:57:32.594Z,640.05
2024-01-16T03:57:43.601Z,640.34
2024-01-16T03:57:54.610Z,640.45
2024-01-16T03:58:06.583Z,640.22
2024-01-16T03:58:17.617Z,639.89
2024-01-16T03:58:29.584Z,639.84
2024-01-16T03:58:40.577Z,640.14
2024-01-16T03:58:52.603Z,640.08
2024-01-16T03:59:03.595Z,639.75
2024-01-16T03:59:15.698Z,639.77
2024-01-16T03:59:27.625Z,639.52
2024-01-16T03:59:39.623Z,639.90
2024-01-16T03:59:51.662Z,640.18
2024-01-16T04:00:02.577Z,640.01
2024-01-16T04:00:13.617Z,640.27
2024-01-16T04:00:25.596Z,640.01
2024-01-16T04:00:36.638Z,639.89
2024-01-16T04:00:47.602Z,640.10
2024-01-16T04:00:59.722Z,640.29
2024-01-16T04:01:11.657Z,640.27
2024-01-16T04:01:22.608Z,640.25
2024-01-16T04:01:33.608Z,640.31
2024-01-16T04:03:01.624Z,639.76